createdAt,value
2018-01-30T00:01:05.359Z,4.30
2018-01-30T00:03:32.847Z,5.28
2018-01-30T00:06:00.336Z,4.55
2018-01-30T00:08:27.835Z,4.00
2018-01-30T00:10:55.338Z,4.47
2018-01-30T00:13:22.843Z,4.37
2018-01-30T00:15:50.347Z,4.25
2018-01-30T00:18:17.826Z,4.37
2018-01-30T00:20:45.388Z,3.85
2018-01-30T00:23:12.879Z,3.90
2018-01-30T00:25:40.353Z,3.72
2018-01-30T00:28:07.860Z,4.00
2018-01-30T00:30:35.363Z,4.20
2018-01-30T00:33:02.883Z,4.53
2018-01-30T00:35:30.363Z,3.83
2018-01-30T00:37:57.864Z,3.65
2018-01-30T00:40:25.340Z,3.65
2018-01-30T00:42:52.812Z,3.35
2018-01-30T00:45:20.357Z,3.42
2018-01-30T00:47:47.865Z,3.30
2018-01-30T00:50:15.371Z,3.37
2018-01-30T00:52:42.846Z,4.72
2018-01-30T00:55:10.332Z,3.87
2018-01-30T00:57:37.823Z,3.45
2018-01-30T01:00:05.317Z,3.62
2018-01-30T01:02:32.802Z,3.40
2018-01-30T01:05:00.308Z,4.07
2018-01-30T01:07:27.821Z,3.65
2018-01-30T01:09:55.299Z,3.30
2018-01-30T01:12:22.795Z,3.60
2018-01-30T01:14:50.267Z,3.40
2018-01-30T01:17:17.751Z,3.50
2018-01-30T01:19:45.236Z,3.47
2018-01-30T01:22:12.703Z,4.32
2018-01-30T01:24:40.195Z,3.75
2018-01-30T01:27:07.675Z,3.67
2018-01-30T01:29:35.159Z,4.15
2018-01-30T01:32:02.601Z,3.50
2018-01-30T01:34:30.183Z,4.18
2018-01-30T01:36:57.651Z,3.72
2018-01-30T01:39:25.124Z,3.40
2018-01-30T01:41:52.603Z,3.33
2018-01-30T01:44:20.084Z,3.08
2018-01-30T01:46:47.563Z,3.22
2018-01-30T01:49:15.075Z,3.03
2018-01-30T01:51:42.556Z,3.15
2018-01-30T01:54:10.039Z,3.67
2018-01-30T01:56:37.633Z,3.22
2018-01-30T01:59:05.111Z,3.35
2018-01-30T02:01:32.590Z,3.40
2018-01-30T02:04:00.075Z,3.40
2018-01-30T02:06:27.567Z,3.30
2018-01-30T02:08:55.078Z,3.40
2018-01-30T02:11:22.573Z,3.40
2018-01-30T02:13:50.095Z,3.58
2018-01-30T02:16:17.574Z,3.05
2018-01-30T02:18:45.053Z,3.30
2018-01-30T02:21:12.559Z,3.25
2018-01-30T02:23:40.054Z,3.17
2018-01-30T02:26:07.553Z,2.90
2018-01-30T02:28:35.043Z,2.85
2018-01-30T02:31:02.545Z,3.35
2018-01-30T02:33:30.042Z,3.30
2018-01-30T02:35:57.525Z,3.10
2018-01-30T02:38:25.017Z,3.58
2018-01-30T02:40:52.516Z,3.05
2018-01-30T02:43:19.999Z,2.90
2018-01-30T02:45:47.577Z,3.20
2018-01-30T02:48:15.075Z,2.85
2018-01-30T02:50:42.613Z,3.10
2018-01-30T02:53:10.089Z,2.85
2018-01-30T02:55:37.564Z,2.60
2018-01-30T02:58:05.048Z,2.45
2018-01-30T03:00:32.551Z,2.97
2018-01-30T03:03:00.015Z,2.50
2018-01-30T03:05:27.499Z,2.40
2018-01-30T03:07:54.978Z,3.28
2018-01-30T03:10:22.471Z,2.97
2018-01-30T03:12:49.943Z,3.15
2018-01-30T03:15:17.434Z,3.10
2018-01-30T03:17:44.922Z,2.55
2018-01-30T03:20:12.424Z,2.70
2018-01-30T03:22:40.074Z,2.97
2018-01-30T03:25:07.555Z,2.55
2018-01-30T03:27:35.034Z,2.35
2018-01-30T03:30:02.543Z,2.40
2018-01-30T03:32:30.030Z,2.55
2018-01-30T03:34:57.513Z,2.80
2018-01-30T03:37:24.994Z,2.67
2018-01-30T03:39:52.476Z,2.50
2018-01-30T03:42:19.954Z,2.95
2018-01-30T03:44:47.423Z,3.37
2018-01-30T03:47:14.924Z,2.15
2018-01-30T03:49:42.409Z,2.47
2018-01-30T03:52:09.888Z,2.65
2018-01-30T03:54:37.358Z,2.25
2018-01-30T03:57:04.844Z,2.55
2018-01-30T03:59:32.334Z,2.50
2018-01-30T04:01:59.807Z,2.25
2018-01-30T04:04:27.271Z,2.40
2018-01-30T04:06:54.750Z,2.40
2018-01-30T04:09:22.214Z,2.78
2018-01-30T04:11:49.669Z,2.15
2018-01-30T04:14:17.168Z,2.28
2018-01-30T04:16:44.648Z,2.40
2018-01-30T04:19:12.147Z,2.60
2018-01-30T04:21:39.617Z,2.40
2018-01-30T04:24:07.090Z,2.95
2018-01-30T04:26:34.580Z,2.30
2018-01-30T04:29:02.067Z,2.80
2018-01-30T04:31:29.536Z,2.87
2018-01-30T04:33:57.066Z,2.87
2018-01-30T04:36:24.584Z,2.50
2018-01-30T04:38:52.067Z,2.50
2018-01-30T04:41:19.539Z,2.22
2018-01-30T04:43:47.022Z,2.10
2018-01-30T04:46:14.492Z,3.22
2018-01-30T04:48:41.971Z,2.37
2018-01-30T04:51:09.455Z,2.47
2018-01-30T04:53:36.939Z,2.20
2018-01-30T04:56:04.445Z,2.33
2018-01-30T04:58:31.958Z,2.10
2018-01-30T05:00:59.430Z,2.40
2018-01-30T05:03:26.914Z,2.30
2018-01-30T05:05:54.403Z,2.30
2018-01-30T05:08:21.852Z,2.53
2018-01-30T05:10:49.351Z,2.62
2018-01-30T05:13:16.816Z,2.35
2018-01-30T05:15:44.338Z,5.18
2018-01-30T05:18:11.834Z,6.60
2018-01-30T05:20:39.306Z,6.00
2018-01-30T05:23:06.813Z,8.63
2018-01-30T05:25:34.307Z,7.35
2018-01-30T05:28:01.780Z,4.82
2018-01-30T05:30:29.279Z,3.10
2018-01-30T05:32:56.728Z,3.20
2018-01-30T05:35:24.290Z,2.78
2018-01-30T05:37:51.778Z,2.75
2018-01-30T05:40:20.122Z,2.78
2018-01-30T05:42:47.595Z,2.33
2018-01-30T05:45:15.079Z,2.20
2018-01-30T05:47:42.572Z,2.40
2018-01-30T05:50:10.059Z,2.47
2018-01-30T05:52:37.544Z,2.58
2018-01-30T05:55:05.010Z,2.70
2018-01-30T05:57:32.495Z,3.10
2018-01-30T06:00:00.057Z,3.30
2018-01-30T06:02:27.530Z,2.80
2018-01-30T06:04:55.007Z,2.42
2018-01-30T06:07:22.493Z,3.00
2018-01-30T06:09:49.966Z,2.70
2018-01-30T06:12:17.445Z,3.58
2018-01-30T06:14:44.932Z,3.30
2018-01-30T06:17:12.431Z,2.80
2018-01-30T06:19:39.894Z,2.60
2018-01-30T06:22:07.422Z,3.85
2018-01-30T06:24:34.939Z,2.50
2018-01-30T06:27:02.423Z,2.50
2018-01-30T06:29:30.752Z,2.50
2018-01-30T06:31:58.259Z,2.33
2018-01-30T06:34:25.727Z,2.42
2018-01-30T06:36:53.211Z,2.53
2018-01-30T06:39:20.701Z,2.70
2018-01-30T06:41:48.179Z,2.97
2018-01-30T06:44:15.669Z,2.62
2018-01-30T06:46:43.170Z,2.60
2018-01-30T06:49:10.640Z,2.70
2018-01-30T06:51:39.318Z,2.80
2018-01-30T06:54:06.802Z,2.58
2018-01-30T06:56:34.307Z,2.50
2018-01-30T06:59:01.810Z,2.60
2018-01-30T07:01:29.279Z,3.10
2018-01-30T07:03:56.754Z,2.72
2018-01-30T07:06:24.230Z,3.05
2018-01-30T07:08:51.723Z,2.78
2018-01-30T07:11:19.215Z,2.80
2018-01-30T07:13:46.696Z,3.22
2018-01-30T07:16:14.195Z,2.83
2018-01-30T07:18:41.686Z,3.55
2018-01-30T07:21:09.166Z,3.03
2018-01-30T07:23:36.649Z,3.10
2018-01-30T07:26:04.160Z,3.00
2018-01-30T07:28:31.653Z,2.85
2018-01-30T07:30:59.151Z,4.53
2018-01-30T07:33:26.640Z,3.33
2018-01-30T07:35:54.115Z,2.65
2018-01-30T07:38:21.664Z,2.65
2018-01-30T07:40:49.155Z,3.37
2018-01-30T07:43:16.644Z,3.10
2018-01-30T07:45:44.143Z,3.20
2018-01-30T07:48:11.632Z,2.90
2018-01-30T07:50:39.149Z,2.80
2018-01-30T07:53:06.632Z,3.33
2018-01-30T07:55:34.107Z,3.45
2018-01-30T07:58:01.619Z,4.53
2018-01-30T08:00:29.488Z,3.60
2018-01-30T08:02:56.987Z,3.30
2018-01-30T08:05:24.458Z,2.75
2018-01-30T08:07:51.939Z,3.15
2018-01-30T08:10:19.413Z,3.37
2018-01-30T08:12:46.892Z,2.90
2018-01-30T08:15:14.363Z,3.67
2018-01-30T08:17:41.847Z,3.72
2018-01-30T08:20:09.360Z,3.72
2018-01-30T08:22:36.846Z,4.15
2018-01-30T08:25:04.398Z,3.72
2018-01-30T08:27:31.889Z,3.72
2018-01-30T08:29:59.387Z,4.12
2018-01-30T08:32:26.899Z,3.80
2018-01-30T08:34:54.461Z,3.85
2018-01-30T08:37:21.953Z,3.42
2018-01-30T08:39:49.443Z,3.50
2018-01-30T08:42:17.005Z,3.83
2018-01-30T08:44:44.540Z,3.47
2018-01-30T08:47:12.049Z,3.15
2018-01-30T08:49:39.543Z,3.60
2018-01-30T08:52:07.047Z,3.50
2018-01-30T08:54:34.529Z,3.33
2018-01-30T08:57:02.023Z,3.55
2018-01-30T08:59:29.498Z,3.22
2018-01-30T09:01:57.199Z,3.60
2018-01-30T09:04:24.698Z,3.22
2018-01-30T09:06:52.186Z,3.75
2018-01-30T09:09:19.756Z,3.80
2018-01-30T09:11:47.282Z,3.35
2018-01-30T09:14:14.782Z,3.50
2018-01-30T09:16:42.303Z,3.87
2018-01-30T09:19:09.867Z,3.72
2018-01-30T09:21:37.352Z,3.47
2018-01-30T09:24:04.795Z,3.97
2018-01-30T09:26:32.322Z,3.55
2018-01-30T09:28:59.807Z,4.00
2018-01-30T09:31:27.287Z,3.42
2018-01-30T09:33:54.827Z,3.72
2018-01-30T09:36:22.314Z,3.50
2018-01-30T09:38:49.806Z,4.55
2018-01-30T09:41:17.279Z,3.87
2018-01-30T09:43:44.766Z,5.00
2018-01-30T09:46:12.235Z,5.45
2018-01-30T09:48:39.737Z,13.65
2018-01-30T09:51:07.215Z,6.50
2018-01-30T09:53:34.775Z,7.72
2018-01-30T09:56:02.256Z,4.45
2018-01-30T09:58:29.764Z,3.83
2018-01-30T10:00:57.243Z,4.05
2018-01-30T10:03:24.740Z,5.22
2018-01-30T10:05:52.233Z,4.12
2018-01-30T10:08:19.720Z,4.53
2018-01-30T10:10:47.215Z,3.65
2018-01-30T10:13:14.705Z,3.47
2018-01-30T10:15:42.196Z,3.53
2018-01-30T10:18:09.698Z,3.45
2018-01-30T10:20:37.238Z,4.10
2018-01-30T10:23:04.742Z,4.03
2018-01-30T10:25:32.223Z,3.37
2018-01-30T10:27:59.703Z,4.20
2018-01-30T10:30:27.179Z,3.72
2018-01-30T10:32:54.687Z,3.40
2018-01-30T10:35:22.171Z,3.03
2018-01-30T10:37:49.656Z,3.50
2018-01-30T10:40:17.178Z,3.53
2018-01-30T10:42:44.671Z,4.80
2018-01-30T10:45:12.188Z,5.68
2018-01-30T10:47:39.704Z,4.65
2018-01-30T10:50:07.245Z,4.75
2018-01-30T10:52:34.715Z,4.60
2018-01-30T10:55:02.223Z,5.35
2018-01-30T10:57:29.709Z,4.70
2018-01-30T10:59:57.213Z,4.97
2018-01-30T11:02:24.698Z,4.53
2018-01-30T11:04:52.202Z,4.72
2018-01-30T11:07:19.689Z,4.60
2018-01-30T11:09:47.183Z,5.22
2018-01-30T11:12:14.674Z,4.95
2018-01-30T11:14:42.211Z,4.57
2018-01-30T11:17:09.696Z,4.53
2018-01-30T11:19:37.196Z,4.50
2018-01-30T11:22:04.696Z,4.47
2018-01-30T11:24:32.230Z,4.72
2018-01-30T11:26:59.725Z,4.05
2018-01-30T11:29:27.229Z,3.62
2018-01-30T11:31:54.763Z,3.80
2018-01-30T11:34:22.250Z,4.43
2018-01-30T11:36:49.750Z,3.97
2018-01-30T11:39:17.243Z,3.65
2018-01-30T11:41:44.811Z,3.75
2018-01-30T11:44:12.291Z,4.15
2018-01-30T11:46:39.780Z,4.62
2018-01-30T11:49:07.336Z,3.95
2018-01-30T11:51:34.830Z,3.67
2018-01-30T11:54:02.313Z,3.92
2018-01-30T11:56:29.836Z,3.22
2018-01-30T11:58:57.343Z,3.67
2018-01-30T12:01:24.820Z,3.75
2018-01-30T12:03:52.321Z,3.25
2018-01-30T12:06:19.810Z,3.37
2018-01-30T12:08:47.298Z,3.10
2018-01-30T12:11:14.799Z,3.17
2018-01-30T12:13:42.319Z,2.70
2018-01-30T12:16:09.840Z,3.62
2018-01-30T12:18:37.340Z,3.83
2018-01-30T12:21:04.829Z,3.17
2018-01-30T12:23:32.328Z,4.20
2018-01-30T12:25:59.833Z,3.90
2018-01-30T12:28:27.335Z,3.45
2018-01-30T12:30:54.868Z,3.80
2018-01-30T12:33:22.338Z,3.05
2018-01-30T12:35:49.840Z,3.83
2018-01-30T12:38:17.333Z,3.83
2018-01-30T12:40:44.851Z,4.10
2018-01-30T12:43:12.374Z,3.80
2018-01-30T12:45:39.867Z,3.78
2018-01-30T12:48:07.418Z,3.90
2018-01-30T12:50:34.907Z,3.35
2018-01-30T12:53:02.423Z,3.70
2018-01-30T12:55:29.933Z,3.58
2018-01-30T12:57:57.458Z,3.60
2018-01-30T13:00:24.950Z,3.47
2018-01-30T13:02:52.455Z,3.15
2018-01-30T13:05:19.939Z,3.22
2018-01-30T13:07:47.438Z,2.92
2018-01-30T13:10:14.941Z,2.80
2018-01-30T13:12:42.450Z,2.70
2018-01-30T13:15:09.929Z,2.47
2018-01-30T13:17:37.411Z,2.15
2018-01-30T13:20:04.896Z,1.48
2018-01-30T13:22:32.427Z,1.35
2018-01-30T13:24:59.907Z,1.35
2018-01-30T13:27:27.507Z,1.02
2018-01-30T13:29:54.991Z,1.35
2018-01-30T13:32:22.471Z,1.05
2018-01-30T13:34:49.958Z,0.95
2018-01-30T13:37:17.572Z,0.98
2018-01-30T13:39:45.063Z,1.27
2018-01-30T13:42:12.579Z,1.15
2018-01-30T13:44:40.179Z,1.45
2018-01-30T13:47:07.706Z,1.25
2018-01-30T13:49:35.190Z,1.35
2018-01-30T13:52:02.710Z,1.40
2018-01-30T13:54:30.190Z,1.67
2018-01-30T13:56:57.671Z,1.60
2018-01-30T13:59:25.179Z,1.30
2018-01-30T14:01:52.672Z,1.52
2018-01-30T14:04:20.148Z,1.60
2018-01-30T14:06:47.656Z,1.77
2018-01-30T14:09:15.147Z,1.30
2018-01-30T14:11:42.635Z,2.35
2018-01-30T14:14:10.109Z,1.60
2018-01-30T14:16:37.607Z,1.45
2018-01-30T14:19:05.087Z,2.10
2018-01-30T14:21:32.600Z,1.87
2018-01-30T14:24:00.109Z,2.55
2018-01-30T14:26:27.596Z,2.45
2018-01-30T14:28:55.156Z,3.42
2018-01-30T14:31:22.634Z,3.10
2018-01-30T14:33:50.116Z,3.05
2018-01-30T14:36:17.631Z,3.10
2018-01-30T14:38:45.092Z,2.90
2018-01-30T14:41:12.611Z,3.28
2018-01-30T14:43:40.125Z,3.90
2018-01-30T14:46:07.643Z,3.45
2018-01-30T14:48:35.136Z,5.80
2018-01-30T14:51:02.607Z,3.45
2018-01-30T14:53:30.095Z,3.15
2018-01-30T14:55:57.580Z,2.95
2018-01-30T14:58:25.119Z,3.10
2018-01-30T15:00:52.637Z,4.70
2018-01-30T15:03:20.175Z,4.72
2018-01-30T15:05:47.752Z,5.00
2018-01-30T15:08:15.251Z,4.22
2018-01-30T15:10:42.754Z,4.00
2018-01-30T15:13:10.271Z,3.80
2018-01-30T15:15:38.876Z,3.53
2018-01-30T15:18:06.977Z,3.75
2018-01-30T15:20:34.486Z,3.72
2018-01-30T15:23:01.993Z,4.78
2018-01-30T15:25:29.482Z,3.22
2018-01-30T15:27:56.976Z,2.70
2018-01-30T15:30:24.534Z,2.75
2018-01-30T15:32:52.071Z,3.12
2018-01-30T15:35:19.566Z,3.25
2018-01-30T15:37:47.057Z,3.42
2018-01-30T15:40:14.555Z,3.70
2018-01-30T15:42:42.045Z,3.70
2018-01-30T15:45:09.547Z,3.92
2018-01-30T15:47:37.018Z,4.22
2018-01-30T15:50:04.540Z,4.22
2018-01-30T15:52:32.031Z,4.47
2018-01-30T15:54:59.550Z,4.68
2018-01-30T15:57:27.054Z,4.78
2018-01-30T15:59:54.600Z,4.85
2018-01-30T16:02:22.077Z,4.70
2018-01-30T16:04:49.568Z,5.53
2018-01-30T16:07:17.090Z,4.47
2018-01-30T16:09:44.571Z,5.10
2018-01-30T16:12:12.061Z,5.07
2018-01-30T16:14:39.563Z,4.90
2018-01-30T16:17:07.059Z,4.85
2018-01-30T16:19:34.546Z,5.60
2018-01-30T16:22:02.090Z,5.60
2018-01-30T16:24:29.576Z,5.37
2018-01-30T16:26:57.075Z,5.93
2018-01-30T16:29:24.672Z,6.00
2018-01-30T16:31:52.172Z,6.50
2018-01-30T16:34:19.695Z,6.07
2018-01-30T16:36:47.211Z,6.68
2018-01-30T16:39:14.737Z,6.37
2018-01-30T16:41:42.262Z,6.68
2018-01-30T16:44:09.781Z,6.87
2018-01-30T16:46:37.283Z,7.03
2018-01-30T16:49:04.774Z,6.85
2018-01-30T16:51:32.275Z,6.60
2018-01-30T16:53:59.760Z,8.10
2018-01-30T16:56:27.234Z,7.12
2018-01-30T16:58:54.868Z,7.53
2018-01-30T17:01:22.371Z,7.72
2018-01-30T17:03:49.873Z,7.68
2018-01-30T17:06:17.379Z,7.40
2018-01-30T17:08:44.957Z,8.13
2018-01-30T17:11:12.477Z,8.13
2018-01-30T17:13:40.005Z,8.88
2018-01-30T17:16:07.550Z,9.48
2018-01-30T17:18:35.090Z,9.23
2018-01-30T17:21:02.612Z,9.20
2018-01-30T17:23:30.138Z,9.50
2018-01-30T17:25:57.662Z,9.02
2018-01-30T17:28:25.223Z,9.30
2018-01-30T17:30:52.719Z,9.85
2018-01-30T17:33:20.203Z,19.83
2018-01-30T17:35:47.703Z,17.80
2018-01-30T17:38:15.310Z,18.17
2018-01-30T17:40:42.794Z,16.85
2018-01-30T17:43:11.164Z,17.95
2018-01-30T17:45:38.656Z,23.40
2018-01-30T17:48:06.155Z,19.52
2018-01-30T17:50:33.657Z,14.07
2018-01-30T17:53:01.165Z,12.50
2018-01-30T17:55:28.739Z,12.77
2018-01-30T17:57:56.219Z,12.25
2018-01-30T18:00:23.733Z,12.27
2018-01-30T18:02:51.259Z,12.85
2018-01-30T18:05:18.776Z,15.75
2018-01-30T18:07:46.283Z,13.38
2018-01-30T18:10:13.815Z,15.52
2018-01-30T18:12:41.317Z,16.83
2018-01-30T18:15:08.851Z,18.92
2018-01-30T18:17:36.385Z,16.55
2018-01-30T18:20:03.955Z,18.15
2018-01-30T18:22:31.465Z,11.85
2018-01-30T18:24:59.088Z,11.38
2018-01-30T18:27:26.599Z,10.68
2018-01-30T18:29:54.104Z,2.67
2018-01-30T18:32:21.596Z,1.70
2018-01-30T18:34:49.125Z,0.82
2018-01-30T18:37:16.664Z,0.90
2018-01-30T18:39:44.156Z,1.20
2018-01-30T18:42:11.665Z,0.93
2018-01-30T18:44:39.183Z,1.02
2018-01-30T18:47:07.253Z,1.48
2018-01-30T18:49:35.563Z,1.87
2018-01-30T18:52:04.966Z,1.25
2018-01-30T18:54:38.366Z,1.75
2018-01-30T18:57:06.232Z,1.50
2018-01-30T18:59:33.775Z,1.02
2018-01-30T19:02:01.379Z,1.20
2018-01-30T19:04:28.931Z,0.90
2018-01-30T19:06:56.611Z,0.82
2018-01-30T19:09:24.203Z,1.23
2018-01-30T19:11:51.732Z,1.20
2018-01-30T19:14:20.070Z,1.00
2018-01-30T19:16:47.661Z,0.77
2018-01-30T19:19:16.153Z,0.93
2018-01-30T19:21:44.200Z,1.05
2018-01-30T19:24:11.699Z,1.15
2018-01-30T19:26:39.240Z,0.90
2018-01-30T19:29:06.784Z,0.80
2018-01-30T19:31:34.288Z,1.10
2018-01-30T19:34:01.836Z,1.12
2018-01-30T19:36:29.356Z,1.15
2018-01-30T19:39:00.596Z,0.77
2018-01-30T19:41:28.115Z,0.57
2018-01-30T19:43:55.615Z,1.25
2018-01-30T19:46:23.179Z,0.95
2018-01-30T19:48:50.776Z,1.35
2018-01-30T19:51:18.277Z,1.20
2018-01-30T19:53:45.809Z,0.73
2018-01-30T19:56:13.332Z,1.00
2018-01-30T19:58:40.863Z,0.65
2018-01-30T20:01:08.409Z,1.17
2018-01-30T20:03:35.992Z,1.37
2018-01-30T20:06:03.501Z,1.25
2018-01-30T20:08:31.000Z,1.08
2018-01-30T20:10:58.506Z,1.20
2018-01-30T20:13:26.038Z,1.95
2018-01-30T20:15:53.524Z,1.95
2018-01-30T20:18:21.041Z,1.87
2018-01-30T20:20:48.558Z,1.50
2018-01-30T20:23:16.063Z,1.60
2018-01-30T20:25:43.551Z,1.40
2018-01-30T20:28:11.054Z,1.27
2018-01-30T20:30:38.610Z,2.00
2018-01-30T20:33:06.090Z,1.83
2018-01-30T20:35:33.587Z,1.95
2018-01-30T20:38:01.094Z,1.52
2018-01-30T20:40:28.586Z,1.65
2018-01-30T20:42:57.166Z,1.48
2018-01-30T20:45:24.653Z,1.52
2018-01-30T20:47:52.150Z,1.25
2018-01-30T20:50:19.698Z,0.90
2018-01-30T20:52:47.202Z,1.23
2018-01-30T20:55:14.712Z,2.28
2018-01-30T20:57:42.235Z,1.27
2018-01-30T21:00:09.728Z,2.30
2018-01-30T21:02:37.203Z,1.60
2018-01-30T21:05:04.710Z,1.65
2018-01-30T21:07:32.207Z,1.87
2018-01-30T21:09:59.686Z,1.67
2018-01-30T21:12:27.170Z,1.80
2018-01-30T21:14:54.703Z,2.33
2018-01-30T21:17:22.203Z,2.30
2018-01-30T21:19:49.695Z,1.73
2018-01-30T21:22:17.203Z,1.98
2018-01-30T21:24:44.703Z,2.12
2018-01-30T21:27:12.206Z,1.92
2018-01-30T21:29:39.750Z,1.77
2018-01-30T21:32:07.315Z,2.12
2018-01-30T21:34:34.847Z,2.05
2018-01-30T21:37:02.335Z,1.92
2018-01-30T21:39:29.845Z,1.52
2018-01-30T21:41:57.343Z,1.95
2018-01-30T21:44:24.835Z,1.62
2018-01-30T21:46:52.339Z,2.30
2018-01-30T21:49:19.842Z,1.62
2018-01-30T21:51:47.370Z,1.60
2018-01-30T21:54:18.431Z,1.10
2018-01-30T21:56:42.363Z,1.62
2018-01-30T21:59:09.871Z,1.48
2018-01-30T22:01:37.386Z,1.00
2018-01-30T22:04:04.863Z,0.98
2018-01-30T22:06:32.344Z,1.20
2018-01-30T22:08:59.868Z,1.12
2018-01-30T22:11:27.363Z,1.00
2018-01-30T22:13:54.866Z,0.93
2018-01-30T22:16:22.383Z,1.15
2018-01-30T22:18:49.934Z,1.05
2018-01-30T22:21:17.434Z,1.67
2018-01-30T22:23:44.930Z,1.70
2018-01-30T22:26:12.442Z,1.87
2018-01-30T22:28:39.933Z,1.90
2018-01-30T22:31:07.414Z,2.35
2018-01-30T22:33:34.924Z,2.20
2018-01-30T22:36:02.427Z,2.28
2018-01-30T22:38:29.922Z,2.10
2018-01-30T22:40:57.415Z,2.47
2018-01-30T22:43:24.918Z,1.70
2018-01-30T22:45:52.415Z,2.05
